Curry, Idaho
Current Conditions -  °F | °C
As of 10:53 PM on Wednesday 22 Oct 2014 (Local Time) from KTWF Reporting Station
Few Clouds Few Clouds  
Wind Chill: 46°   Ceiling: Unl
Heat Index: 49°   Visibility: 10mi
Dew Point: 33°   Wind: 7mph
Humidity: 54%   Direction: 120°ESE
Pressure: 30.07"   Gusts: NA
Location:  42.5734°N, 114.626°W
Report Text: KTWF 230453Z AUTO 12006KT 10SM FEW120 09/01 A3007 RMK AO2 SLP156 T00940006
Loading
Personal Weather Stations






























Interactive Weather Map
Tropical Storm Tracking
New forecast layout! Learn more

10-Day Weather Forecast

Advertisements
Track Severe Weather on mobile